Time;durP1;ratioP1;P1;durP2;ratioP2;P2;SDS_P1;SDS_P2;PMS_P1;PMS_P2;Temp;Humidity;BMP_temperature;BMP_pressure;BME280_temperature;BME280_humidity;BME280_pressure;Samples;Min_cycle;Max_cycle;Signal;HPM_P1;HPM_P2
2022/05/24 00:05:16;;;;;;;19.23;10.68;;;12.70;99.90;;;;;;21223074;27;20396;-58
2022/05/24 00:15:23;;;;;;;14.23;9.85;;;12.70;99.90;;;;;;21210244;27;20069;-58
2022/05/24 00:25:27;;;;;;;14.13;9.30;;;12.70;99.90;;;;;;21223588;27;20480;-58
2022/05/24 00:35:30;;;;;;;14.80;8.52;;;12.50;99.90;;;;;;21200464;27;20061;-54
2022/05/24 00:45:57;;;;;;;14.35;7.97;;;12.40;99.90;;;;;;21216935;27;20047;-58
2022/05/24 00:56:11;;;;;;;10.07;6.25;;;12.30;99.90;;;;;;21213540;27;20084;-58
2022/05/24 01:06:13;;;;;;;11.38;4.25;;;12.30;99.90;;;;;;21197857;27;20064;-58
2022/05/24 01:16:17;;;;;;;7.57;3.60;;;12.10;99.90;;;;;;21220106;27;20100;-56
2022/05/24 01:26:41;;;;;;;6.32;2.85;;;12.00;99.90;;;;;;21212497;27;20043;-56
2022/05/24 01:36:45;;;;;;;6.70;3.35;;;11.80;99.90;;;;;;21208797;27;20031;-52
2022/05/24 01:46:48;;;;;;;7.95;3.53;;;11.70;99.90;;;;;;21209268;27;20112;-57
2022/05/24 01:56:59;;;;;;;7.43;2.60;;;11.60;99.90;;;;;;21209399;27;20099;-55
2022/05/24 02:07:04;;;;;;;7.85;3.28;;;11.50;99.90;;;;;;21215301;27;20035;-51
2022/05/24 02:17:15;;;;;;;7.50;3.40;;;11.30;99.90;;;;;;21210451;27;20111;-50
2022/05/24 02:27:17;;;;;;;11.60;5.00;;;11.10;99.90;;;;;;21211932;27;20258;-52
2022/05/24 02:37:20;;;;;;;9.35;5.32;;;11.00;99.90;;;;;;21201997;27;20043;-52
2022/05/24 02:47:22;;;;;;;7.47;5.30;;;10.90;99.90;;;;;;21195908;27;20081;-52
2022/05/24 02:57:25;;;;;;;6.80;4.50;;;10.80;99.90;;;;;;21207956;27;20129;-53
2022/05/24 03:17:49;;;;;;;4.63;3.17;;;10.50;99.90;;;;;;21209701;28;20099;-58
2022/05/24 03:27:51;;;;;;;6.78;3.40;;;10.40;99.90;;;;;;21195495;28;20081;-57
2022/05/24 03:37:54;;;;;;;8.30;3.78;;;10.40;99.90;;;;;;21196244;28;20092;-58
2022/05/24 03:47:56;;;;;;;8.00;3.88;;;10.50;99.90;;;;;;21204359;28;20333;-53
2022/05/24 03:58:02;;;;;;;4.90;2.10;;;10.60;99.90;;;;;;21180448;27;20537;-52
2022/05/24 04:08:05;;;;;;;6.25;2.00;;;10.80;99.90;;;;;;21206621;27;20493;-53
2022/05/24 04:18:10;;;;;;;4.40;2.13;;;11.00;99.90;;;;;;21203577;27;20039;-53
2022/05/24 04:28:13;;;;;;;5.72;2.20;;;11.00;99.90;;;;;;21206266;27;20107;-54
2022/05/24 04:38:16;;;;;;;5.03;2.88;;;11.10;99.90;;;;;;21205435;27;20377;-58
2022/05/24 04:48:19;;;;;;;3.78;1.88;;;11.20;99.90;;;;;;21194185;27;20055;-53
2022/05/24 04:58:22;;;;;;;3.08;1.83;;;11.60;99.90;;;;;;21211702;27;20380;-58
2022/05/24 05:08:25;;;;;;;5.05;2.05;;;12.10;99.90;;;;;;21202095;27;20396;-58
2022/05/24 05:18:28;;;;;;;2.47;1.80;;;12.40;99.90;;;;;;21209051;27;20060;-53
2022/05/24 05:28:31;;;;;;;3.47;2.25;;;12.40;99.90;;;;;;21212689;27;20039;-55
2022/05/24 05:38:33;;;;;;;3.60;2.00;;;12.30;99.90;;;;;;21201038;27;20035;-54
2022/05/24 05:48:38;;;;;;;3.85;2.45;;;12.20;99.90;;;;;;21200491;27;20055;-58
2022/05/24 05:58:40;;;;;;;3.88;2.45;;;12.60;99.90;;;;;;21212734;27;20593;-58
2022/05/24 06:08:43;;;;;;;4.07;2.72;;;13.00;99.90;;;;;;21170769;27;20080;-54
2022/05/24 06:18:46;;;;;;;6.75;2.30;;;13.40;99.90;;;;;;21201656;27;20084;-57
2022/05/24 06:28:49;;;;;;;6.03;3.08;;;17.30;99.90;;;;;;21213900;27;20111;-58
2022/05/24 06:38:51;;;;;;;5.20;2.63;;;20.60;99.90;;;;;;21206027;27;20103;-59
2022/05/24 06:48:55;;;;;;;6.40;3.42;;;23.50;99.90;;;;;;21205432;27;20039;-57
2022/05/24 07:09:18;;;;;;;6.38;3.78;;;25.90;95.50;;;;;;21166292;28;20043;-59
2022/05/24 07:19:25;;;;;;;5.43;3.40;;;24.80;95.20;;;;;;21192829;28;20035;-60
2022/05/24 07:29:28;;;;;;;6.03;3.28;;;23.90;96.50;;;;;;21173368;28;20284;-60
2022/05/24 07:39:31;;;;;;;6.60;3.28;;;23.80;96.20;;;;;;21209663;27;20120;-62
2022/05/24 07:49:34;;;;;;;3.00;2.10;;;23.90;97.40;;;;;;21216256;27;20104;-58
2022/05/24 07:59:38;;;;;;;4.80;2.50;;;24.10;94.80;;;;;;21218307;27;20039;-61
2022/05/24 08:09:41;;;;;;;5.68;2.97;;;24.60;95.60;;;;;;21200668;27;20136;-63
2022/05/24 08:19:45;;;;;;;24.27;9.07;;;25.00;96.00;;;;;;21186883;27;20031;-62
2022/05/24 08:29:48;;;;;;;17.92;8.02;;;26.10;94.10;;;;;;21197847;27;20039;-62
2022/05/24 08:39:50;;;;;;;57.88;16.08;;;24.60;97.40;;;;;;21206057;27;20100;-61
2022/05/24 08:49:55;;;;;;;85.07;20.63;;;24.30;96.50;;;;;;21215946;27;20380;-61
2022/05/24 09:00:02;;;;;;;97.97;22.58;;;24.10;96.90;;;;;;21219930;27;20524;-61
2022/05/24 09:10:08;;;;;;;73.93;17.33;;;23.30;99.90;;;;;;21213041;27;20026;-61
2022/05/24 09:20:40;;;;;;;34.40;10.60;;;22.40;99.90;;;;;;21188053;27;20091;-63
2022/05/24 09:30:43;;;;;;;296.40;61.35;;;23.30;99.90;;;;;;21213402;27;20387;-64
2022/05/24 09:41:03;;;;;;;285.38;65.28;;;25.90;98.60;;;;;;21216040;27;20031;-64
2022/05/24 09:51:12;;;;;;;31.10;7.35;;;26.70;95.80;;;;;;21179252;27;20103;-59
2022/05/24 10:01:40;;;;;;;515.03;125.60;;;26.70;94.70;;;;;;21198973;27;20043;-64
2022/05/24 10:11:58;;;;;;;7.40;3.28;;;26.40;95.10;;;;;;21188956;27;20056;-65
2022/05/24 10:22:12;;;;;;;12.95;4.30;;;26.40;93.90;;;;;;21170724;27;20031;-65
2022/05/24 10:43:24;;;;;;;8.45;3.78;;;25.60;92.70;;;;;;21206923;27;20044;-57
2022/05/24 10:53:34;;;;;;;6.38;3.60;;;24.50;94.10;;;;;;21191698;27;20474;-64
2022/05/24 11:03:45;;;;;;;6.03;2.97;;;24.60;94.40;;;;;;21191358;28;20043;-64
2022/05/24 11:14:29;;;;;;;6.70;2.85;;;25.10;92.60;;;;;;21222222;27;20491;-63
2022/05/24 11:24:42;;;;;;;8.60;3.20;;;25.70;91.50;;;;;;20884784;28;20060;-64
2022/05/24 11:35:19;;;;;;;9.80;3.47;;;25.30;91.40;;;;;;20884170;28;20596;-65
2022/05/24 11:45:31;;;;;;;6.55;3.53;;;26.20;91.60;;;;;;20861604;28;20774;-64
2022/05/24 11:55:44;;;;;;;7.35;3.50;;;27.10;91.00;;;;;;20876069;28;20113;-64
2022/05/24 12:16:32;;;;;;;6.72;4.45;;;26.10;89.60;;;;;;21107373;28;20039;-65
2022/05/24 12:27:08;;;;;;;10.20;4.40;;;25.00;91.30;;;;;;21087180;28;20553;-65
2022/05/24 12:37:46;;;;;;;7.87;4.13;;;26.10;90.90;;;;;;21113803;28;20489;-63
2022/05/24 12:47:53;;;;;;;9.50;4.73;;;25.30;91.30;;;;;;20744840;28;20439;-62
2022/05/24 12:57:56;;;;;;;12.80;5.70;;;23.50;92.10;;;;;;20713399;28;20100;-58
2022/05/24 13:08:01;;;;;;;8.25;5.13;;;23.40;93.20;;;;;;20729314;28;20073;-63
2022/05/24 13:18:12;;;;;;;12.30;5.93;;;22.90;93.80;;;;;;20831705;28;20093;-64
2022/05/24 13:28:36;;;;;;;13.98;6.40;;;23.80;92.80;;;;;;21065079;28;20370;-61
2022/05/24 13:38:41;;;;;;;13.07;6.70;;;22.80;94.90;;;;;;21052846;28;20035;-62
2022/05/24 13:48:53;;;;;;;14.18;6.05;;;22.20;96.30;;;;;;21112422;27;20047;-64
2022/05/24 13:59:07;;;;;;;11.55;7.38;;;23.60;95.70;;;;;;21163412;27;20044;-63
2022/05/24 14:09:09;;;;;;;11.23;7.18;;;23.30;94.30;;;;;;21184669;27;20496;-63
2022/05/24 14:19:12;;;;;;;8.75;6.50;;;23.70;95.30;;;;;;21194607;27;20031;-57
2022/05/24 14:29:15;;;;;;;10.88;6.93;;;23.50;94.90;;;;;;21201552;27;20092;-63
2022/05/24 14:39:19;;;;;;;13.82;5.53;;;22.90;95.70;;;;;;21156787;27;20036;-63
2022/05/24 14:49:25;;;;;;;9.25;5.95;;;23.70;94.70;;;;;;21212409;27;20465;-57
2022/05/24 14:59:28;;;;;;;10.05;6.88;;;23.80;93.00;;;;;;21209119;27;20035;-61
2022/05/24 15:19:51;;;;;;;12.55;7.15;;;21.20;98.90;;;;;;21186193;28;20043;-61
2022/05/24 15:29:54;;;;;;;11.93;6.78;;;20.70;98.90;;;;;;21209996;28;20080;-61
2022/05/24 15:39:58;;;;;;;12.18;7.47;;;20.10;99.90;;;;;;21174068;28;20023;-60
2022/05/24 15:50:00;;;;;;;10.13;7.55;;;19.90;99.90;;;;;;21190399;28;20055;-60
2022/05/24 16:00:10;;;;;;;14.57;8.45;;;19.30;99.90;;;;;;21203764;27;20039;-60
2022/05/24 16:10:21;;;;;;;12.38;8.65;;;18.70;99.90;;;;;;21211956;27;20027;-60
2022/05/24 16:20:23;;;;;;;10.32;8.23;;;18.20;99.90;;;;;;21214974;27;20480;-60
2022/05/24 16:30:26;;;;;;;12.38;8.95;;;18.10;99.90;;;;;;21219302;27;20032;-59
2022/05/24 16:40:31;;;;;;;14.65;8.90;;;18.10;99.90;;;;;;21214931;27;20107;-60
2022/05/24 16:50:33;;;;;;;17.73;7.90;;;18.00;99.90;;;;;;21216332;27;20043;-61
2022/05/24 17:00:36;;;;;;;14.25;8.55;;;18.20;99.90;;;;;;21205131;27;20556;-59
2022/05/24 17:10:39;;;;;;;18.48;9.35;;;18.00;99.90;;;;;;21218659;27;20100;-59
2022/05/24 17:20:42;;;;;;;12.43;8.93;;;17.40;99.90;;;;;;21207090;27;20039;-59
2022/05/24 17:30:48;;;;;;;16.98;9.63;;;17.10;99.90;;;;;;21210918;27;20064;-59
2022/05/24 17:40:56;;;;;;;11.85;9.13;;;16.80;99.90;;;;;;21201368;27;20544;-59
2022/05/24 17:50:59;;;;;;;13.20;9.25;;;16.70;99.90;;;;;;21213870;27;20051;-60
2022/05/24 18:01:02;;;;;;;15.20;8.38;;;16.50;99.90;;;;;;21189663;27;20047;-59
2022/05/24 18:11:06;;;;;;;11.35;8.73;;;16.40;99.90;;;;;;21181331;27;20028;-59
2022/05/24 18:21:09;;;;;;;13.25;9.65;;;16.20;99.90;;;;;;21191917;27;20031;-59
2022/05/24 18:41:37;;;;;;;21.17;15.32;;;16.00;99.90;;;;;;21206812;27;20043;-50
2022/05/24 18:51:40;;;;;;;32.88;18.65;;;15.50;99.90;;;;;;21190674;27;20043;-44
2022/05/24 19:01:45;;;;;;;1.40;0.10;;;15.20;99.90;;;;;;21208545;27;20039;-47
2022/05/24 19:11:48;;;;;;;5.57;1.23;;;12.40;99.90;;;;;;21207731;28;20031;-52
2022/05/24 19:21:50;;;;;;;11.80;2.97;;;12.20;99.90;;;;;;21172146;28;20096;-54
2022/05/24 19:32:12;;;;;;;3.65;1.60;;;11.80;99.90;;;;;;21207465;27;20356;-59
2022/05/24 19:42:17;;;;;;;7.30;2.75;;;11.60;99.90;;;;;;21228709;27;20043;-58
2022/05/24 19:52:24;;;;;;;4.25;2.35;;;11.40;99.90;;;;;;21222004;27;20068;-44
2022/05/24 20:02:28;;;;;;;3.03;1.95;;;11.30;99.90;;;;;;21209471;27;20503;-62
2022/05/24 20:12:32;;;;;;;12.45;7.88;;;11.10;99.90;;;;;;21205637;27;20084;-61
2022/05/24 20:22:35;;;;;;;12.50;7.65;;;11.40;99.90;;;;;;21203232;27;20476;-61
2022/05/24 20:32:40;;;;;;;27.35;14.98;;;11.70;99.90;;;;;;20901813;28;20114;-60
2022/05/24 20:42:43;;;;;;;21.65;11.52;;;11.80;99.90;;;;;;20918678;28;20044;-61
2022/05/24 20:52:46;;;;;;;21.20;12.95;;;12.00;99.90;;;;;;20895808;28;20076;-48
2022/05/24 21:02:49;;;;;;;17.85;12.73;;;12.00;99.90;;;;;;20940238;28;20530;-47
2022/05/24 21:12:58;;;;;;;27.77;13.57;;;12.20;99.90;;;;;;21058856;27;20484;-60
2022/05/24 21:23:01;;;;;;;22.70;13.88;;;12.30;99.90;;;;;;21219281;27;20038;-60
2022/05/24 21:33:25;;;;;;;13.60;9.38;;;12.20;99.90;;;;;;21217895;27;20047;-59
2022/05/24 21:43:28;;;;;;;17.75;9.63;;;12.00;99.90;;;;;;21191420;27;20453;-47
2022/05/24 21:53:33;;;;;;;23.27;8.70;;;11.70;99.90;;;;;;21199632;27;20035;-49
2022/05/24 22:03:39;;;;;;;18.48;9.20;;;11.40;99.90;;;;;;21193113;27;20095;-53
2022/05/24 22:13:43;;;;;;;11.82;7.13;;;11.40;99.90;;;;;;21210295;27;20064;-49
2022/05/24 22:23:47;;;;;;;15.07;7.88;;;11.30;99.90;;;;;;21212278;27;20080;-48
2022/05/24 22:33:54;;;;;;;15.95;8.57;;;11.30;99.90;;;;;;21224924;27;20086;-47
2022/05/24 22:43:58;;;;;;;15.80;8.80;;;11.20;99.90;;;;;;21196690;27;20043;-59
2022/05/24 22:54:01;;;;;;;17.73;9.45;;;11.30;99.90;;;;;;21209321;27;20064;-48
2022/05/24 23:04:03;;;;;;;20.30;12.30;;;11.10;99.90;;;;;;21205965;27;20039;-49
2022/05/24 23:14:06;;;;;;;24.10;14.15;;;11.00;99.90;;;;;;21207768;28;20080;-52
2022/05/24 23:24:08;;;;;;;20.70;12.07;;;11.10;99.90;;;;;;21204817;28;20040;-52
2022/05/24 23:34:15;;;;;;;22.90;13.45;;;11.20;99.90;;;;;;21209472;28;20380;-49
2022/05/24 23:44:17;;;;;;;22.50;12.68;;;11.40;99.90;;;;;;21202668;28;20043;-59
2022/05/24 23:54:21;;;;;;;25.70;13.35;;;11.60;99.90;;;;;;21212494;28;20039;-50
